Xihua, China
Current Conditions -  °F | °C
As of 8:00 AM on Saturday 22 Nov 2014 (Local Time) from ZHCC Reporting Station
Moderate Fog Moderate Fog  
Wind Chill: 44°   Ceiling: Unl
Heat Index: 48°   Visibility: 0.5mi
Dew Point: 41°   Wind: 9mph
Humidity: 76%   Direction: 10°N
Pressure: 30.24"   Gusts: NA
Location:  33.79°N, 114.52°E
Report Text: ZHCC 220000Z 01004MPS 350V050 0800 R12/1100V1200N FGNSC09/05 Q1024 NOSIG
Loading
Personal Weather Stations






























Interactive Weather Map New forecast layout! Learn more

10-Day Weather Forecast

Advertisements
Track Severe Weather on mobile